Ana Sayfa
METAR-TAF:

METAR-TAF

Havaalanları :

Winchester Regional Airport

Winchester, Virginia, Amerika Birleşik Devletleri

Enlem: 39-09N, Boylam: 078-09W, yükseklik: 222 m

Güncel hava durumu gözlemi

Rapor saat 12:35 UTC de 23 dakika önce yapıldı.
Rüzgar batı/güneybatıdan 5 kt
Sıcaklık 26°C
Nem 74%
Basınç 1016 hPa
Görüş mesafesi: 16.1 km
Açık gökyüzü

METAR: KOKV 191235Z AUTO 24005KT 10SM CLR 26/21 A3000 RMK AO2

Saat: 08:58 (12:58 UTC)


TAF: eksik

4.000'den fazla havaalanı için hava durumu gözlemleri ve tahminleri (METAR ve TAF raporları).

Kullanılabilir istasyonlar harita üzerinde sarı ve kırmızı noktalarla gösterilir.

İstasyonun adını görmek için fareyi noktanın üzerinde gezdirin.

Sonrasında hava gözlem ve tahminlerini görmek için tıklayın.

Haritayı değiştirmek için: yaklaştırmak için siyah artı işaretli yeşil düğmeye ve uzaklaştırmak için de eksi işaretli düğmeye hızla tıklayın; bitişik haritalar için yeşil okları kullanın.


METAR-TAF: